Terminal Aerodrome Forecast
Issued by NWS Northern Indiana

Home | Current Version | Previous Version | Text Only | Print | Product List | Glossary Off
Versions: 1 2 3 4 5 6 7 8 9 10 11 12 13

589
FTUS43 KIWX 222335
TAFFWA
TAF
KFWA 222335Z 2300/2324 09005KT P6SM SCT250
     FM231500 13010KT P6SM SCT150 BKN250
     FM232000 15010KT P6SM BKN100=

USA.gov is the U.S. government's official web portal to all federal, state and local government web resources and services.